Time;durP1;ratioP1;P1;durP2;ratioP2;P2;SDS_P1;SDS_P2;PMS_P1;PMS_P2;Temp;Humidity;BMP_temperature;BMP_pressure;BME280_temperature;BME280_humidity;BME280_pressure;Samples;Min_cycle;Max_cycle;Signal;HPM_P1;HPM_P2
2023/12/01 00:00:18;;;;;;;;;;;19.40;53.30;;;;;;5055872;28;19932;-60
2023/12/01 00:02:44;;;;;;;;;;;19.40;53.30;;;;;;5055475;28;19928;-59
2023/12/01 00:05:09;;;;;;;;;;;19.40;53.30;;;;;;5036686;28;19925;-59
2023/12/01 00:07:35;;;;;;;;;;;19.40;53.30;;;;;;5055524;28;19924;-59
2023/12/01 00:10:00;;;;;;;;;;;19.30;53.30;;;;;;5037314;28;19925;-60
2023/12/01 00:12:26;;;;;;;;;;;19.30;53.30;;;;;;5037112;28;19929;-60
2023/12/01 00:14:51;;;;;;;;;;;19.30;53.20;;;;;;5055029;28;19925;-60
2023/12/01 00:17:17;;;;;;;;;;;19.30;53.20;;;;;;5056457;28;20446;-60
2023/12/01 00:19:42;;;;;;;;;;;19.30;53.20;;;;;;5074555;28;19928;-60
2023/12/01 00:22:08;;;;;;;;;;;19.30;53.10;;;;;;5074962;28;20003;-60
2023/12/01 00:24:34;;;;;;;;;;;19.30;53.10;;;;;;5057297;28;19931;-60
2023/12/01 00:26:59;;;;;;;;;;;19.20;53.00;;;;;;5074108;28;19924;-60
2023/12/01 00:29:25;;;;;;;;;;;19.20;53.10;;;;;;5063363;28;20491;-60
2023/12/01 00:31:50;;;;;;;;;;;19.20;53.00;;;;;;5037557;28;19929;-60
2023/12/01 00:34:16;;;;;;;;;;;19.20;53.00;;;;;;5060177;28;19981;-60
2023/12/01 00:36:41;;;;;;;;;;;19.20;53.00;;;;;;5075203;28;19931;-60
2023/12/01 00:39:07;;;;;;;;;;;19.20;53.00;;;;;;5074839;28;19982;-60
2023/12/01 00:41:33;;;;;;;;;;;19.20;53.00;;;;;;5074322;28;19925;-60
2023/12/01 00:43:58;;;;;;;;;;;19.10;53.00;;;;;;5074577;28;20368;-60
2023/12/01 00:46:23;;;;;;;;;;;19.20;53.00;;;;;;5074002;28;19929;-60
2023/12/01 00:48:49;;;;;;;;;;;19.10;53.00;;;;;;5069981;28;20291;-60
2023/12/01 00:51:15;;;;;;;;;;;19.10;53.00;;;;;;5054879;28;19921;-60
2023/12/01 00:53:41;;;;;;;;;;;19.10;52.90;;;;;;5054067;28;19924;-60
2023/12/01 00:56:07;;;;;;;;;;;19.10;52.90;;;;;;5054105;28;19928;-60
2023/12/01 00:58:33;;;;;;;;;;;19.10;52.90;;;;;;5054774;28;19928;-60
2023/12/01 01:00:58;;;;;;;;;;;19.10;53.00;;;;;;5035971;28;19928;-60
2023/12/01 01:03:24;;;;;;;;;;;19.10;52.90;;;;;;5036513;28;19925;-60
2023/12/01 01:05:49;;;;;;;;;;;19.10;53.00;;;;;;5054367;28;19920;-60
2023/12/01 01:08:15;;;;;;;;;;;19.00;52.90;;;;;;5053668;28;19931;-60
2023/12/01 01:10:41;;;;;;;;;;;19.10;52.90;;;;;;5054545;28;20456;-60
2023/12/01 01:13:06;;;;;;;;;;;19.10;53.00;;;;;;5053528;28;20288;-60
2023/12/01 01:15:32;;;;;;;;;;;19.00;52.90;;;;;;5053741;28;19935;-60
2023/12/01 01:17:57;;;;;;;;;;;19.00;52.90;;;;;;5053874;28;20303;-60
2023/12/01 01:20:23;;;;;;;;;;;19.00;52.80;;;;;;5054592;28;20008;-60
2023/12/01 01:22:48;;;;;;;;;;;19.00;52.90;;;;;;5064381;28;20288;-60
2023/12/01 01:25:13;;;;;;;;;;;19.00;52.80;;;;;;5073439;28;19925;-60
2023/12/01 01:27:39;;;;;;;;;;;19.00;52.80;;;;;;5073747;28;20007;-60
2023/12/01 01:30:05;;;;;;;;;;;19.00;52.80;;;;;;5072283;28;19924;-60
2023/12/01 01:32:31;;;;;;;;;;;19.00;52.80;;;;;;5073917;28;19925;-60
2023/12/01 01:34:56;;;;;;;;;;;18.90;52.80;;;;;;5073796;28;19928;-60
2023/12/01 01:37:22;;;;;;;;;;;18.90;52.80;;;;;;5073183;28;20400;-60
2023/12/01 01:39:47;;;;;;;;;;;18.90;52.70;;;;;;5073999;28;19931;-60
2023/12/01 01:42:13;;;;;;;;;;;18.90;52.70;;;;;;5073494;28;19924;-60
2023/12/01 01:44:38;;;;;;;;;;;18.90;52.70;;;;;;5073077;28;20023;-60
2023/12/01 01:47:04;;;;;;;;;;;18.90;52.70;;;;;;5073535;28;20276;-60
2023/12/01 01:49:29;;;;;;;;;;;18.90;52.70;;;;;;5073752;28;19924;-60
2023/12/01 01:51:55;;;;;;;;;;;18.90;52.60;;;;;;5054936;28;19924;-60
2023/12/01 01:54:22;;;;;;;;;;;18.90;52.60;;;;;;5073578;28;20015;-60
2023/12/01 01:56:48;;;;;;;;;;;18.80;52.60;;;;;;5072632;28;19925;-60
2023/12/01 01:59:13;;;;;;;;;;;18.80;52.50;;;;;;5073158;28;19931;-60
2023/12/01 02:01:39;;;;;;;;;;;18.80;52.60;;;;;;5072698;28;19925;-60
2023/12/01 02:04:07;;;;;;;;;;;18.80;52.60;;;;;;5072419;28;19925;-60
2023/12/01 02:06:33;;;;;;;;;;;18.80;53.20;;;;;;5073211;28;19925;-60
2023/12/01 02:08:59;;;;;;;;;;;18.80;52.50;;;;;;5072696;28;20004;-60
2023/12/01 02:11:25;;;;;;;;;;;18.80;52.50;;;;;;5038374;28;19928;-60
2023/12/01 02:13:51;;;;;;;;;;;18.70;52.40;;;;;;5073513;28;20003;-60
2023/12/01 02:16:17;;;;;;;;;;;18.70;52.50;;;;;;5039621;28;19936;-60
2023/12/01 02:18:42;;;;;;;;;;;18.70;52.40;;;;;;5053241;28;19925;-59
2023/12/01 02:21:08;;;;;;;;;;;18.70;52.40;;;;;;5072856;28;20058;-60
2023/12/01 02:23:33;;;;;;;;;;;18.70;52.50;;;;;;5073290;28;20290;-59
2023/12/01 02:25:59;;;;;;;;;;;18.70;52.40;;;;;;5053878;28;19924;-59
2023/12/01 02:28:24;;;;;;;;;;;18.70;52.40;;;;;;5052999;28;20360;-60
2023/12/01 02:30:53;;;;;;;;;;;18.70;52.40;;;;;;5053273;28;20373;-60
2023/12/01 02:33:19;;;;;;;;;;;18.70;52.40;;;;;;5052410;28;19947;-60
2023/12/01 02:35:45;;;;;;;;;;;18.70;52.40;;;;;;5053078;28;20378;-60
2023/12/01 02:38:11;;;;;;;;;;;18.70;52.30;;;;;;5035023;28;19925;-60
2023/12/01 02:40:42;;;;;;;;;;;18.70;52.30;;;;;;5051784;28;19982;-60
2023/12/01 02:43:11;;;;;;;;;;;18.70;52.30;;;;;;5052945;28;19970;-60
2023/12/01 02:45:37;;;;;;;;;;;18.70;52.20;;;;;;5053205;28;20015;-60
2023/12/01 02:48:02;;;;;;;;;;;18.70;52.20;;;;;;5051681;28;20015;-60
2023/12/01 02:50:28;;;;;;;;;;;18.70;52.20;;;;;;5052797;28;19983;-60
2023/12/01 02:52:53;;;;;;;;;;;18.70;52.20;;;;;;5052594;28;19929;-60
2023/12/01 02:55:19;;;;;;;;;;;18.70;52.20;;;;;;5052774;28;20011;-60
2023/12/01 02:57:44;;;;;;;;;;;18.70;52.20;;;;;;5052737;28;19928;-60
2023/12/01 03:00:13;;;;;;;;;;;18.70;52.20;;;;;;5051749;28;19975;-59
2023/12/01 03:02:39;;;;;;;;;;;18.70;52.20;;;;;;5034449;28;19925;-60
2023/12/01 03:05:05;;;;;;;;;;;18.70;52.20;;;;;;5051579;28;19979;-60
2023/12/01 03:07:30;;;;;;;;;;;18.70;52.20;;;;;;5051733;28;19976;-60
2023/12/01 03:09:56;;;;;;;;;;;18.70;52.10;;;;;;5052362;28;19932;-60
2023/12/01 03:12:21;;;;;;;;;;;18.70;52.10;;;;;;5052765;28;20400;-60
2023/12/01 03:14:47;;;;;;;;;;;18.70;52.00;;;;;;5052033;28;19986;-60
2023/12/01 03:17:12;;;;;;;;;;;18.70;52.10;;;;;;5052452;28;20384;-60
2023/12/01 03:19:38;;;;;;;;;;;18.70;52.10;;;;;;5052567;28;19929;-60
2023/12/01 03:22:03;;;;;;;;;;;18.70;52.10;;;;;;5051400;28;19925;-60
2023/12/01 03:24:29;;;;;;;;;;;18.70;52.10;;;;;;5034610;28;19986;-60
2023/12/01 03:26:54;;;;;;;;;;;18.80;52.10;;;;;;5052095;28;19924;-60
2023/12/01 03:29:20;;;;;;;;;;;18.70;52.00;;;;;;5051712;28;20039;-60
2023/12/01 03:31:45;;;;;;;;;;;18.70;51.90;;;;;;5052536;28;19921;-60
2023/12/01 03:34:11;;;;;;;;;;;18.70;51.90;;;;;;5052027;28;20249;-59
2023/12/01 03:36:36;;;;;;;;;;;18.70;51.90;;;;;;5033406;28;19935;-60
2023/12/01 03:39:02;;;;;;;;;;;18.80;51.90;;;;;;5052031;28;19948;-60
2023/12/01 03:41:27;;;;;;;;;;;18.80;51.90;;;;;;5052663;28;20020;-60
2023/12/01 03:43:52;;;;;;;;;;;18.80;51.80;;;;;;5051459;28;19927;-59
2023/12/01 03:46:18;;;;;;;;;;;18.80;51.80;;;;;;5052287;28;19925;-60
2023/12/01 03:48:43;;;;;;;;;;;18.80;51.80;;;;;;5052273;28;19925;-59
2023/12/01 03:51:09;;;;;;;;;;;18.80;51.80;;;;;;5033416;28;19979;-60
2023/12/01 03:53:36;;;;;;;;;;;18.80;51.70;;;;;;5055640;28;19946;-59
2023/12/01 03:56:01;;;;;;;;;;;18.80;51.80;;;;;;5055808;28;19932;-59
2023/12/01 03:58:27;;;;;;;;;;;18.90;51.70;;;;;;5055300;28;19935;-59
2023/12/01 04:00:52;;;;;;;;;;;18.90;51.70;;;;;;5037699;28;20365;-60
2023/12/01 04:03:18;;;;;;;;;;;18.90;51.70;;;;;;5055083;28;19931;-59
2023/12/01 04:05:44;;;;;;;;;;;18.90;51.70;;;;;;5037918;28;19971;-59
2023/12/01 04:08:09;;;;;;;;;;;18.90;51.60;;;;;;5055615;28;20395;-59
2023/12/01 04:10:35;;;;;;;;;;;18.90;51.60;;;;;;5054938;28;19924;-59
2023/12/01 04:13:07;;;;;;;;;;;18.90;51.60;;;;;;5021088;28;20029;-59
2023/12/01 04:15:33;;;;;;;;;;;19.00;51.60;;;;;;5055788;28;20031;-59
2023/12/01 04:18:06;;;;;;;;;;;19.00;51.60;;;;;;5054318;28;19968;-60
2023/12/01 04:20:38;;;;;;;;;;;19.00;51.60;;;;;;5055313;28;19925;-60
2023/12/01 04:23:09;;;;;;;;;;;19.00;51.50;;;;;;5036922;28;19932;-60
2023/12/01 04:25:38;;;;;;;;;;;19.00;51.50;;;;;;5036902;28;19971;-59
2023/12/01 04:28:03;;;;;;;;;;;19.00;51.50;;;;;;5055179;28;19947;-59
2023/12/01 04:30:30;;;;;;;;;;;19.00;51.50;;;;;;5055458;28;19925;-59
2023/12/01 04:32:56;;;;;;;;;;;19.00;51.50;;;;;;5054009;28;19932;-59
2023/12/01 04:35:22;;;;;;;;;;;19.10;51.50;;;;;;5037182;28;19924;-59
2023/12/01 04:37:48;;;;;;;;;;;19.10;51.40;;;;;;5055104;28;19924;-60
2023/12/01 04:40:16;;;;;;;;;;;19.10;51.50;;;;;;5066992;28;19931;-59
2023/12/01 04:42:43;;;;;;;;;;;19.10;51.40;;;;;;5074974;28;19924;-59
2023/12/01 04:45:11;;;;;;;;;;;19.10;51.40;;;;;;5057145;28;19924;-60
2023/12/01 04:47:43;;;;;;;;;;;19.10;51.40;;;;;;5056226;28;19935;-59
2023/12/01 04:50:13;;;;;;;;;;;19.10;51.40;;;;;;5074306;28;20288;-59
2023/12/01 04:52:46;;;;;;;;;;;19.10;51.40;;;;;;5074146;28;19924;-59
2023/12/01 04:55:16;;;;;;;;;;;19.10;51.30;;;;;;5074661;28;19924;-59
2023/12/01 04:57:42;;;;;;;;;;;19.10;51.30;;;;;;5056659;28;19931;-60
2023/12/01 05:00:20;;;;;;;;;;;19.20;51.30;;;;;;5055698;28;19924;-59
2023/12/01 05:02:50;;;;;;;;;;;19.20;51.20;;;;;;5064282;28;20372;-59
2023/12/01 05:05:16;;;;;;;;;;;19.20;51.20;;;;;;5073686;28;19930;-59
2023/12/01 05:07:42;;;;;;;;;;;19.20;51.20;;;;;;5073470;28;20015;-59
2023/12/01 05:10:14;;;;;;;;;;;19.20;51.10;;;;;;5056297;28;20015;-60
2023/12/01 05:12:43;;;;;;;;;;;19.20;51.20;;;;;;5074466;28;19925;-59
2023/12/01 05:15:15;;;;;;;;;;;19.20;51.10;;;;;;5073170;28;19928;-60
2023/12/01 05:17:42;;;;;;;;;;;19.20;51.10;;;;;;5057141;28;20001;-60
2023/12/01 05:20:15;;;;;;;;;;;19.20;51.20;;;;;;5073911;28;19929;-60
2023/12/01 05:22:44;;;;;;;;;;;19.20;51.20;;;;;;5073356;28;20001;-60
2023/12/01 05:25:13;;;;;;;;;;;19.30;51.20;;;;;;5073812;28;19925;-60
2023/12/01 05:27:46;;;;;;;;;;;19.30;51.20;;;;;;5073561;28;20010;-60
2023/12/01 05:30:15;;;;;;;;;;;19.30;51.20;;;;;;5055850;28;20407;-60
2023/12/01 05:32:41;;;;;;;;;;;19.30;51.10;;;;;;5056332;28;19928;-59
2023/12/01 05:35:10;;;;;;;;;;;19.30;51.10;;;;;;5072739;28;19928;-60
2023/12/01 05:37:36;;;;;;;;;;;19.30;51.10;;;;;;5073911;28;19931;-60
2023/12/01 05:40:03;;;;;;;;;;;19.30;51.10;;;;;;5073687;28;19932;-60
2023/12/01 05:42:28;;;;;;;;;;;19.30;51.10;;;;;;5055443;28;19925;-60
2023/12/01 05:44:54;;;;;;;;;;;19.30;51.10;;;;;;5073406;28;19932;-60
2023/12/01 05:47:19;;;;;;;;;;;19.30;51.00;;;;;;5073601;28;19968;-60
2023/12/01 05:49:45;;;;;;;;;;;19.40;51.10;;;;;;5055070;28;19928;-60
2023/12/01 05:52:10;;;;;;;;;;;19.40;51.00;;;;;;5073332;28;20019;-60
2023/12/01 05:54:36;;;;;;;;;;;19.40;51.10;;;;;;5073539;28;19943;-60
2023/12/01 05:57:01;;;;;;;;;;;19.40;51.00;;;;;;5072740;28;19925;-60
2023/12/01 05:59:27;;;;;;;;;;;19.40;50.80;;;;;;5052230;28;19934;-59
2023/12/01 06:01:52;;;;;;;;;;;19.40;50.90;;;;;;5071011;28;19927;-60
2023/12/01 06:04:18;;;;;;;;;;;19.40;50.90;;;;;;5072115;28;19928;-59
2023/12/01 06:06:43;;;;;;;;;;;19.40;50.80;;;;;;5055281;28;19934;-60
2023/12/01 06:09:09;;;;;;;;;;;19.40;50.80;;;;;;5072892;28;19932;-60
2023/12/01 06:11:35;;;;;;;;;;;19.40;50.80;;;;;;5072028;28;19932;-59
2023/12/01 06:14:00;;;;;;;;;;;19.40;50.80;;;;;;5069207;28;19929;-60
2023/12/01 06:16:26;;;;;;;;;;;19.40;50.50;;;;;;5034492;28;20123;-60
2023/12/01 06:18:51;;;;;;;;;;;19.40;50.30;;;;;;5061705;28;19925;-60
2023/12/01 06:21:17;;;;;;;;;;;19.40;50.10;;;;;;5055026;28;19925;-61
2023/12/01 06:23:43;;;;;;;;;;;19.40;49.90;;;;;;5072581;28;19931;-60
2023/12/01 06:26:09;;;;;;;;;;;19.40;49.80;;;;;;5068216;28;19925;-61
2023/12/01 06:28:34;;;;;;;;;;;19.40;49.80;;;;;;5052401;28;19932;-61
2023/12/01 06:31:00;;;;;;;;;;;19.40;49.90;;;;;;5040469;28;20453;-61
2023/12/01 06:33:26;;;;;;;;;;;19.40;49.90;;;;;;5035667;28;19921;-61
2023/12/01 06:35:52;;;;;;;;;;;19.40;49.90;;;;;;5063062;28;20376;-61
2023/12/01 06:38:17;;;;;;;;;;;19.40;50.00;;;;;;5054084;28;19931;-60
2023/12/01 06:40:43;;;;;;;;;;;19.40;50.10;;;;;;5055218;28;20015;-62
2023/12/01 06:43:12;;;;;;;;;;;19.40;50.10;;;;;;5069234;28;19924;-63
2023/12/01 06:45:38;;;;;;;;;;;19.40;50.00;;;;;;5070210;28;19924;-60
2023/12/01 06:48:03;;;;;;;;;;;19.50;49.90;;;;;;5072024;28;19924;-61
2023/12/01 06:50:29;;;;;;;;;;;19.50;50.00;;;;;;5069733;28;19925;-60
2023/12/01 06:52:55;;;;;;;;;;;19.50;49.90;;;;;;5051575;28;19928;-60
2023/12/01 06:55:20;;;;;;;;;;;19.50;50.00;;;;;;5067980;28;20303;-57
2023/12/01 06:57:47;;;;;;;;;;;19.50;50.00;;;;;;5072470;28;20379;-58
2023/12/01 07:02:56;;;;;;;;;;;19.50;50.10;;;;;;5072696;28;19934;-59
2023/12/01 07:05:22;;;;;;;;;;;19.50;50.20;;;;;;5061182;28;19925;-59
2023/12/01 07:07:47;;;;;;;;;;;19.60;50.40;;;;;;5051712;28;19924;-59
2023/12/01 07:10:16;;;;;;;;;;;19.60;50.40;;;;;;5057700;28;20276;-59
2023/12/01 07:12:41;;;;;;;;;;;19.60;50.70;;;;;;5050648;28;19924;-61
2023/12/01 07:15:13;;;;;;;;;;;19.60;50.70;;;;;;5052471;28;19939;-61
2023/12/01 07:17:39;;;;;;;;;;;19.60;50.70;;;;;;5072483;28;19924;-61
2023/12/01 07:20:13;;;;;;;;;;;19.60;50.60;;;;;;5071862;28;19932;-63
2023/12/01 07:22:39;;;;;;;;;;;19.60;50.50;;;;;;5072375;28;20388;-61
2023/12/01 07:25:10;;;;;;;;;;;19.60;50.50;;;;;;5056207;28;19932;-61
2023/12/01 07:27:39;;;;;;;;;;;19.60;50.60;;;;;;5038010;28;19924;-60
2023/12/01 07:30:05;;;;;;;;;;;19.60;50.50;;;;;;5056075;28;19990;-61
2023/12/01 07:32:31;;;;;;;;;;;19.60;50.40;;;;;;5055949;28;19979;-62
2023/12/01 07:34:56;;;;;;;;;;;19.60;50.40;;;;;;5037514;28;19947;-62
2023/12/01 07:37:22;;;;;;;;;;;19.60;50.40;;;;;;5038223;28;19924;-62
2023/12/01 07:39:47;;;;;;;;;;;19.60;50.40;;;;;;5038644;28;20082;-61
2023/12/01 07:42:12;;;;;;;;;;;19.60;50.30;;;;;;5037137;28;19932;-61
2023/12/01 07:44:38;;;;;;;;;;;19.60;50.30;;;;;;5038547;28;19924;-61
2023/12/01 07:47:07;;;;;;;;;;;19.60;50.30;;;;;;5051881;28;19924;-61
2023/12/01 07:49:33;;;;;;;;;;;19.60;50.40;;;;;;5075423;28;19978;-61
2023/12/01 07:51:58;;;;;;;;;;;19.60;50.30;;;;;;5075845;28;19924;-61
2023/12/01 07:54:24;;;;;;;;;;;19.60;50.20;;;;;;5058365;28;19925;-61
2023/12/01 07:56:49;;;;;;;;;;;19.60;50.30;;;;;;5074651;28;19924;-61
2023/12/01 07:59:15;;;;;;;;;;;19.60;50.20;;;;;;5075556;28;19927;-61
2023/12/01 08:01:41;;;;;;;;;;;19.60;50.20;;;;;;5075498;28;20368;-61
2023/12/01 08:04:07;;;;;;;;;;;19.70;50.30;;;;;;5074648;28;20018;-62
2023/12/01 08:06:33;;;;;;;;;;;19.60;50.20;;;;;;5057695;28;20447;-61
2023/12/01 08:08:58;;;;;;;;;;;19.70;50.30;;;;;;5075522;28;19939;-61
2023/12/01 08:11:24;;;;;;;;;;;19.60;50.20;;;;;;5057288;28;19924;-62
2023/12/01 08:13:51;;;;;;;;;;;19.60;50.10;;;;;;5075779;28;19967;-61
2023/12/01 08:16:16;;;;;;;;;;;19.70;50.20;;;;;;5057841;28;19924;-61
2023/12/01 08:18:42;;;;;;;;;;;19.70;50.20;;;;;;5074667;28;19932;-62
2023/12/01 08:21:08;;;;;;;;;;;19.70;50.20;;;;;;5057283;28;19925;-62
2023/12/01 08:23:34;;;;;;;;;;;19.60;50.10;;;;;;5056686;28;19924;-61
2023/12/01 08:25:59;;;;;;;;;;;19.70;50.20;;;;;;5075031;28;20269;-61
2023/12/01 08:28:25;;;;;;;;;;;19.70;50.20;;;;;;5057433;28;19925;-62
2023/12/01 08:30:50;;;;;;;;;;;19.70;50.30;;;;;;5074446;28;19924;-61
2023/12/01 08:33:16;;;;;;;;;;;19.70;50.20;;;;;;5057238;28;20408;-61
2023/12/01 08:35:42;;;;;;;;;;;19.70;50.20;;;;;;5057056;28;19964;-62
2023/12/01 08:38:09;;;;;;;;;;;19.70;50.20;;;;;;5055503;28;19935;-61
2023/12/01 08:40:35;;;;;;;;;;;19.70;50.20;;;;;;5074241;28;20380;-61
2023/12/01 08:43:01;;;;;;;;;;;19.80;50.20;;;;;;5074252;28;19924;-61
2023/12/01 08:45:27;;;;;;;;;;;19.70;50.10;;;;;;5074122;28;19928;-61
2023/12/01 08:47:52;;;;;;;;;;;19.80;50.20;;;;;;5074490;28;19925;-61
2023/12/01 08:50:19;;;;;;;;;;;19.80;50.10;;;;;;5056808;28;19925;-62
2023/12/01 08:52:44;;;;;;;;;;;19.80;50.10;;;;;;5074174;28;19986;-62
2023/12/01 08:55:10;;;;;;;;;;;19.80;50.10;;;;;;5056938;28;19925;-62
2023/12/01 08:57:37;;;;;;;;;;;19.80;50.10;;;;;;5057058;28;19931;-61
2023/12/01 09:00:02;;;;;;;;;;;19.80;50.10;;;;;;5055526;28;19925;-62
2023/12/01 09:02:28;;;;;;;;;;;19.80;50.00;;;;;;5074930;28;19977;-62
2023/12/01 09:04:54;;;;;;;;;;;19.90;50.20;;;;;;5056537;28;19925;-61
2023/12/01 09:07:20;;;;;;;;;;;19.90;50.20;;;;;;5055651;28;19931;-61
2023/12/01 09:09:45;;;;;;;;;;;19.90;50.20;;;;;;5074743;28;19929;-61
2023/12/01 09:12:10;;;;;;;;;;;19.90;50.20;;;;;;5073196;28;20493;-61
2023/12/01 09:14:36;;;;;;;;;;;19.90;50.20;;;;;;5072951;28;20352;-61
2023/12/01 09:17:01;;;;;;;;;;;19.90;50.10;;;;;;5074367;28;19924;-62
2023/12/01 09:19:27;;;;;;;;;;;19.90;50.20;;;;;;5056264;28;20447;-62
2023/12/01 09:21:52;;;;;;;;;;;20.00;50.20;;;;;;5073149;28;19982;-62
2023/12/01 09:24:18;;;;;;;;;;;19.90;50.10;;;;;;5055886;28;19925;-62
2023/12/01 09:26:44;;;;;;;;;;;20.00;50.20;;;;;;5073995;28;20269;-62
2023/12/01 09:29:09;;;;;;;;;;;20.00;50.10;;;;;;5055262;28;20015;-62
2023/12/01 09:31:42;;;;;;;;;;;20.00;50.10;;;;;;5056102;28;19924;-62
2023/12/01 09:34:09;;;;;;;;;;;20.00;50.20;;;;;;5054957;28;20858;-62
2023/12/01 09:36:34;;;;;;;;;;;20.00;50.10;;;;;;5073842;28;19925;-62
2023/12/01 09:39:00;;;;;;;;;;;20.00;50.20;;;;;;5073800;28;19927;-62
2023/12/01 09:41:25;;;;;;;;;;;20.00;50.10;;;;;;5073364;28;20481;-62
2023/12/01 09:43:51;;;;;;;;;;;20.00;50.20;;;;;;5056044;28;19967;-62
2023/12/01 09:46:16;;;;;;;;;;;20.00;50.80;;;;;;5073589;28;19945;-62
2023/12/01 09:48:42;;;;;;;;;;;20.00;50.10;;;;;;5072646;28;19963;-62
2023/12/01 09:51:08;;;;;;;;;;;20.00;50.10;;;;;;5038177;28;20042;-62
2023/12/01 09:53:34;;;;;;;;;;;20.00;50.20;;;;;;5073915;28;19920;-61
2023/12/01 09:56:00;;;;;;;;;;;20.00;50.10;;;;;;5072659;28;20388;-59
2023/12/01 09:58:26;;;;;;;;;;;19.90;50.00;;;;;;5055654;28;20265;-59
2023/12/01 10:00:52;;;;;;;;;;;19.90;50.00;;;;;;5055657;28;19930;-59
2023/12/01 10:03:17;;;;;;;;;;;20.00;50.10;;;;;;5072713;28;19929;-59
2023/12/01 10:05:43;;;;;;;;;;;19.90;50.70;;;;;;5073273;28;19921;-59
2023/12/01 10:08:09;;;;;;;;;;;19.90;50.00;;;;;;5073214;28;19925;-59
2023/12/01 10:10:34;;;;;;;;;;;19.90;50.00;;;;;;5072638;28;20015;-59
2023/12/01 10:13:04;;;;;;;;;;;19.90;50.10;;;;;;5072909;28;20302;-59
2023/12/01 10:15:29;;;;;;;;;;;19.90;50.00;;;;;;5055459;28;19925;-61
2023/12/01 10:18:06;;;;;;;;;;;19.90;50.00;;;;;;5072192;28;19932;-61
2023/12/01 10:20:32;;;;;;;;;;;19.80;49.90;;;;;;5068167;28;19924;-60
2023/12/01 10:22:57;;;;;;;;;;;19.80;50.00;;;;;;5072839;28;19928;-60
2023/12/01 10:25:23;;;;;;;;;;;19.80;50.00;;;;;;5054537;28;20299;-60
2023/12/01 10:27:57;;;;;;;;;;;19.80;50.00;;;;;;5073281;28;19925;-61
2023/12/01 10:30:23;;;;;;;;;;;19.80;50.00;;;;;;5072915;28;19931;-61
2023/12/01 10:32:48;;;;;;;;;;;19.80;50.00;;;;;;5073165;28;19924;-61
2023/12/01 10:35:14;;;;;;;;;;;19.80;50.00;;;;;;5072740;28;19925;-60
2023/12/01 10:37:39;;;;;;;;;;;19.70;50.00;;;;;;5072605;28;19925;-60
2023/12/01 10:40:05;;;;;;;;;;;19.70;49.90;;;;;;5072453;28;20065;-60
2023/12/01 10:42:34;;;;;;;;;;;19.70;49.90;;;;;;5034331;28;19924;-60
2023/12/01 10:45:00;;;;;;;;;;;19.70;49.90;;;;;;5033868;28;20012;-60
2023/12/01 10:47:25;;;;;;;;;;;19.70;50.00;;;;;;5035188;28;19932;-60
2023/12/01 10:49:51;;;;;;;;;;;19.70;49.90;;;;;;5035202;28;19925;-60
2023/12/01 10:52:17;;;;;;;;;;;19.70;50.20;;;;;;5018051;28;20344;-61
2023/12/01 10:54:43;;;;;;;;;;;19.60;49.90;;;;;;5035243;28;20303;-60
2023/12/01 10:57:18;;;;;;;;;;;19.70;49.90;;;;;;5018635;28;19925;-60
2023/12/01 10:59:44;;;;;;;;;;;19.70;49.80;;;;;;5034338;28;19924;-60
2023/12/01 11:02:10;;;;;;;;;;;19.70;49.80;;;;;;5037825;28;19925;-60
2023/12/01 11:04:36;;;;;;;;;;;19.70;49.80;;;;;;5039150;28;19928;-61
2023/12/01 11:07:10;;;;;;;;;;;19.70;49.80;;;;;;5037983;28;20020;-60
2023/12/01 11:09:39;;;;;;;;;;;19.70;49.80;;;;;;5039011;28;19932;-60
2023/12/01 11:12:34;;;;;;;;;;;19.70;49.70;;;;;;5038869;28;19932;-61
2023/12/01 11:15:03;;;;;;;;;;;19.70;49.60;;;;;;5017643;28;19925;-61
2023/12/01 11:17:29;;;;;;;;;;;19.70;49.60;;;;;;5022493;28;19925;-61
2023/12/01 11:19:54;;;;;;;;;;;19.70;49.80;;;;;;5037618;28;20284;-60
2023/12/01 11:22:27;;;;;;;;;;;19.70;49.60;;;;;;5056401;28;19943;-60
2023/12/01 11:24:53;;;;;;;;;;;19.70;49.60;;;;;;5038610;28;19979;-61
2023/12/01 11:27:19;;;;;;;;;;;19.70;49.50;;;;;;5038092;28;19978;-60
2023/12/01 11:30:06;;;;;;;;;;;19.70;49.50;;;;;;5051430;28;19924;-60
2023/12/01 11:32:33;;;;;;;;;;;19.70;49.50;;;;;;5076437;28;19978;-60
2023/12/01 11:35:06;;;;;;;;;;;19.70;49.50;;;;;;5075319;28;19951;-60
2023/12/01 11:37:51;;;;;;;;;;;19.80;49.50;;;;;;5076389;28;19928;-60
2023/12/01 11:40:20;;;;;;;;;;;19.80;49.50;;;;;;5076044;28;19924;-60
2023/12/01 11:42:49;;;;;;;;;;;19.80;49.50;;;;;;5057559;28;19932;-60
2023/12/01 11:45:15;;;;;;;;;;;19.80;49.50;;;;;;5076152;28;19933;-60
2023/12/01 11:47:41;;;;;;;;;;;19.80;49.40;;;;;;5075255;28;19947;-61
2023/12/01 11:50:08;;;;;;;;;;;19.80;49.40;;;;;;5075849;28;19947;-61
2023/12/01 11:52:34;;;;;;;;;;;19.80;49.40;;;;;;5076288;28;20019;-61
2023/12/01 11:54:59;;;;;;;;;;;19.80;49.30;;;;;;5057275;28;20024;-61
2023/12/01 11:57:25;;;;;;;;;;;19.90;49.40;;;;;;5075821;28;20387;-60
2023/12/01 11:59:51;;;;;;;;;;;19.90;49.40;;;;;;5075954;28;19920;-61
2023/12/01 12:02:27;;;;;;;;;;;19.90;49.30;;;;;;5057166;28;20025;-61
2023/12/01 12:04:53;;;;;;;;;;;19.90;49.40;;;;;;5057493;28;19968;-60
2023/12/01 12:07:19;;;;;;;;;;;19.90;49.30;;;;;;5041145;28;19983;-61
2023/12/01 12:09:44;;;;;;;;;;;19.90;49.30;;;;;;5057334;28;19931;-61
2023/12/01 12:12:13;;;;;;;;;;;19.90;49.20;;;;;;5074433;28;19967;-60
2023/12/01 12:14:40;;;;;;;;;;;19.90;49.20;;;;;;5075530;28;19932;-60
2023/12/01 12:17:05;;;;;;;;;;;19.90;49.90;;;;;;5056568;28;20280;-60
2023/12/01 12:19:42;;;;;;;;;;;19.90;49.20;;;;;;5075345;28;20402;-60
2023/12/01 12:22:07;;;;;;;;;;;19.90;49.20;;;;;;5074824;28;19932;-61
2023/12/01 12:24:33;;;;;;;;;;;19.90;49.10;;;;;;5056745;28;19924;-60
2023/12/01 12:26:58;;;;;;;;;;;19.90;49.20;;;;;;5040548;28;19931;-60
2023/12/01 12:29:24;;;;;;;;;;;19.90;49.10;;;;;;5075597;28;20015;-61
2023/12/01 12:31:51;;;;;;;;;;;19.90;49.20;;;;;;5074622;28;19920;-60
2023/12/01 12:34:17;;;;;;;;;;;19.90;49.20;;;;;;5075149;28;19978;-60
2023/12/01 12:36:43;;;;;;;;;;;19.90;49.10;;;;;;5074532;28;19921;-60
2023/12/01 12:39:13;;;;;;;;;;;19.90;49.10;;;;;;5056038;28;19928;-60
2023/12/01 12:41:40;;;;;;;;;;;19.90;49.10;;;;;;5075184;28;19976;-60
2023/12/01 12:44:06;;;;;;;;;;;19.90;49.10;;;;;;5073506;28;19966;-60
2023/12/01 12:46:33;;;;;;;;;;;19.90;49.10;;;;;;5074806;28;19931;-60
2023/12/01 12:49:03;;;;;;;;;;;19.90;49.00;;;;;;5074719;28;19937;-60
2023/12/01 12:51:29;;;;;;;;;;;19.90;49.00;;;;;;5074278;28;19924;-60
2023/12/01 12:53:54;;;;;;;;;;;19.90;49.00;;;;;;5074846;28;20395;-60
2023/12/01 12:56:23;;;;;;;;;;;19.90;49.00;;;;;;5057388;28;19924;-60
2023/12/01 12:58:49;;;;;;;;;;;19.90;49.00;;;;;;5056239;28;20360;-60
2023/12/01 13:01:14;;;;;;;;;;;19.90;49.00;;;;;;5036551;28;19970;-60
2023/12/01 13:03:40;;;;;;;;;;;19.90;49.00;;;;;;5036614;28;20016;-60
2023/12/01 13:06:06;;;;;;;;;;;19.90;48.90;;;;;;5053803;28;19925;-60
2023/12/01 13:08:32;;;;;;;;;;;19.90;48.90;;;;;;5036723;28;19925;-60
2023/12/01 13:10:58;;;;;;;;;;;19.90;48.80;;;;;;5036663;28;19929;-60
2023/12/01 13:13:23;;;;;;;;;;;19.90;48.80;;;;;;5036200;28;19932;-60
2023/12/01 13:15:49;;;;;;;;;;;19.90;48.80;;;;;;5054509;28;20351;-60
2023/12/01 13:18:14;;;;;;;;;;;19.90;48.80;;;;;;5036346;28;19925;-60
2023/12/01 13:20:39;;;;;;;;;;;19.90;48.90;;;;;;5053829;28;19924;-60
2023/12/01 13:23:05;;;;;;;;;;;19.90;48.80;;;;;;5053982;28;20015;-60
2023/12/01 13:25:31;;;;;;;;;;;19.90;48.70;;;;;;5054117;28;19924;-60
2023/12/01 13:27:56;;;;;;;;;;;20.00;48.80;;;;;;5053211;28;19983;-60
2023/12/01 13:30:22;;;;;;;;;;;19.90;48.80;;;;;;5036731;28;19948;-60
2023/12/01 13:32:49;;;;;;;;;;;20.00;48.80;;;;;;5053400;28;20294;-61
2023/12/01 13:35:14;;;;;;;;;;;20.00;48.80;;;;;;5053125;28;19967;-60
2023/12/01 13:37:40;;;;;;;;;;;20.00;48.70;;;;;;5036253;28;19932;-61
2023/12/01 13:40:08;;;;;;;;;;;20.00;48.80;;;;;;5053048;28;19925;-60
2023/12/01 13:42:35;;;;;;;;;;;20.00;48.70;;;;;;5019706;28;20376;-60
2023/12/01 13:45:01;;;;;;;;;;;20.00;48.70;;;;;;5053805;28;19931;-60
2023/12/01 13:47:26;;;;;;;;;;;20.00;48.70;;;;;;5052865;28;19924;-60
2023/12/01 13:49:52;;;;;;;;;;;20.00;48.70;;;;;;5053631;28;20338;-60
2023/12/01 13:52:18;;;;;;;;;;;20.00;48.70;;;;;;5036195;28;20315;-60
2023/12/01 13:54:43;;;;;;;;;;;20.00;48.70;;;;;;5035328;28;19964;-60
2023/12/01 13:57:09;;;;;;;;;;;20.00;48.70;;;;;;5035887;28;19946;-60
2023/12/01 13:59:34;;;;;;;;;;;20.00;48.70;;;;;;5053534;28;19920;-60
2023/12/01 14:02:00;;;;;;;;;;;20.00;48.70;;;;;;5034945;28;19932;-60
2023/12/01 14:04:25;;;;;;;;;;;20.00;48.70;;;;;;5053442;28;19921;-60
2023/12/01 14:06:51;;;;;;;;;;;20.00;48.70;;;;;;5035733;28;19925;-60
2023/12/01 14:09:17;;;;;;;;;;;20.00;48.70;;;;;;5035272;28;19924;-61
2023/12/01 14:11:43;;;;;;;;;;;20.00;48.60;;;;;;5053441;28;19924;-60
2023/12/01 14:14:09;;;;;;;;;;;20.00;48.60;;;;;;5035218;28;19935;-60